Time;durP1;ratioP1;P1;durP2;ratioP2;P2;SDS_P1;SDS_P2;PMS_P1;PMS_P2;Temp;Humidity;BMP_temperature;BMP_pressure;BME280_temperature;BME280_humidity;BME280_pressure;Samples;Min_cycle;Max_cycle;Signal;HPM_P1;HPM_P2
2022/05/20 00:00:43;;;;;;;5.70;2.67;;;;;;;;;;6162046;23;20431;-93
2022/05/20 00:03:10;;;;;;;4.20;2.58;;;;;;;;;;6161241;23;20021;-93
2022/05/20 00:05:36;;;;;;;5.43;2.70;;;;;;;;;;6161757;23;20005;-94
2022/05/20 00:08:03;;;;;;;6.28;3.05;;;;;;;;;;6161752;23;20012;-94
2022/05/20 00:10:30;;;;;;;6.75;3.17;;;;;;;;;;6160786;23;20013;-92
2022/05/20 00:13:00;;;;;;;5.97;2.40;;;;;;;;;;6161862;23;20005;-93
2022/05/20 00:15:27;;;;;;;6.47;2.88;;;;;;;;;;6161927;23;20109;-92
2022/05/20 00:17:54;;;;;;;3.53;2.30;;;;;;;;;;6165709;23;20005;-93
2022/05/20 00:20:21;;;;;;;6.22;2.03;;;;;;;;;;6162983;23;20040;-93
2022/05/20 00:22:48;;;;;;;4.28;2.30;;;;;;;;;;6161523;23;20001;-94
2022/05/20 00:28:24;;;;;;;3.88;1.75;;;;;;;;;;6187596;23;20016;-92
2022/05/20 00:30:51;;;;;;;4.97;1.88;;;;;;;;;;6161137;23;20513;-94
2022/05/20 00:33:18;;;;;;;3.83;1.90;;;;;;;;;;6161498;23;20009;-93
2022/05/20 00:35:45;;;;;;;6.75;1.88;;;;;;;;;;6161784;23;20430;-95
2022/05/20 00:38:12;;;;;;;4.35;1.63;;;;;;;;;;6161490;23;20469;-92
2022/05/20 00:40:39;;;;;;;3.90;1.90;;;;;;;;;;6161701;23;20001;-94
2022/05/20 00:43:08;;;;;;;4.28;1.70;;;;;;;;;;6160944;23;20035;-92
2022/05/20 00:45:35;;;;;;;3.85;1.90;;;;;;;;;;6161489;23;20011;-93
2022/05/20 00:48:01;;;;;;;2.65;1.60;;;;;;;;;;6161685;23;20013;-93
2022/05/20 00:50:27;;;;;;;4.05;1.60;;;;;;;;;;6165552;23;20013;-93
2022/05/20 00:52:54;;;;;;;3.28;1.70;;;;;;;;;;6161400;23;20005;-94
2022/05/20 00:55:22;;;;;;;5.82;1.67;;;;;;;;;;6161932;23;20027;-93
2022/05/20 00:58:04;;;;;;;2.40;1.50;;;;;;;;;;6161280;23;20458;-94
2022/05/20 01:00:31;;;;;;;4.00;1.77;;;;;;;;;;6161032;23;20005;-92
2022/05/20 01:03:00;;;;;;;4.75;1.70;;;;;;;;;;6161144;23;20028;-92
2022/05/20 01:05:36;;;;;;;5.65;1.67;;;;;;;;;;6161386;23;20009;-93
2022/05/20 01:08:02;;;;;;;4.85;1.70;;;;;;;;;;6185685;23;20026;-95
2022/05/20 01:16:43;;;;;;;3.20;1.77;;;;;;;;;;6187260;23;20092;-95
2022/05/20 01:19:39;;;;;;;4.03;1.55;;;;;;;;;;6161754;23;20498;-91
2022/05/20 01:27:54;;;;;;;6.22;1.70;;;;;;;;;;6187631;23;20048;-93
2022/05/20 01:30:23;;;;;;;3.05;1.70;;;;;;;;;;6156470;23;20016;-92
2022/05/20 01:32:50;;;;;;;2.30;1.60;;;;;;;;;;6161028;23;20037;-94
2022/05/20 01:35:49;;;;;;;2.47;1.45;;;;;;;;;;6161013;23;20009;-92
2022/05/20 01:38:15;;;;;;;2.63;1.80;;;;;;;;;;6097716;23;20001;-93
2022/05/20 01:40:41;;;;;;;6.18;1.80;;;;;;;;;;6165953;23;20088;-92
2022/05/20 01:43:12;;;;;;;2.67;1.80;;;;;;;;;;6165111;23;20028;-94
2022/05/20 01:45:43;;;;;;;4.13;1.52;;;;;;;;;;6161232;23;20009;-94
2022/05/20 01:48:16;;;;;;;2.50;1.60;;;;;;;;;;6160920;23;20032;-92
2022/05/20 01:50:43;;;;;;;;;;;;;;;;;;6181832;23;20013;-94
2022/05/20 01:53:20;;;;;;;2.70;1.75;;;;;;;;;;6161935;23;19905;-93
2022/05/20 01:55:58;;;;;;;3.45;1.80;;;;;;;;;;6164214;23;20339;-93
2022/05/20 01:58:52;;;;;;;3.50;2.00;;;;;;;;;;6163707;23;20001;-93
2022/05/20 02:07:57;;;;;;;8.13;1.80;;;;;;;;;;6187914;23;20089;-94
2022/05/20 02:10:32;;;;;;;4.47;1.90;;;;;;;;;;6164244;23;20079;-93
2022/05/20 02:13:05;;;;;;;4.15;2.05;;;;;;;;;;6164624;23;20000;-93
2022/05/20 02:15:52;;;;;;;4.03;2.10;;;;;;;;;;6164092;23;20426;-93
2022/05/20 02:18:24;;;;;;;3.88;2.00;;;;;;;;;;6170071;23;20009;-94
2022/05/20 02:20:54;;;;;;;6.70;2.05;;;;;;;;;;6164367;23;20016;-93
2022/05/20 02:23:23;;;;;;;3.15;2.10;;;;;;;;;;6163990;23;20005;-94
2022/05/20 02:25:51;;;;;;;3.50;2.00;;;;;;;;;;6163797;23;20009;-94
2022/05/20 02:28:22;;;;;;;3.60;1.98;;;;;;;;;;6163845;23;20052;-94
2022/05/20 02:30:48;;;;;;;3.53;2.00;;;;;;;;;;6163960;23;20067;-94
2022/05/20 02:33:16;;;;;;;3.40;1.80;;;;;;;;;;6163943;23;20005;-93
2022/05/20 02:35:43;;;;;;;4.72;2.00;;;;;;;;;;6163964;23;20009;-93
2022/05/20 02:38:11;;;;;;;3.38;2.17;;;;;;;;;;6163927;23;20005;-93
2022/05/20 02:40:37;;;;;;;5.63;2.25;;;;;;;;;;6164102;23;20009;-94
2022/05/20 02:43:04;;;;;;;4.82;2.28;;;;;;;;;;6164026;23;20008;-93
2022/05/20 02:45:30;;;;;;;3.58;1.98;;;;;;;;;;6164125;23;20434;-94
2022/05/20 02:47:56;;;;;;;6.53;2.08;;;;;;;;;;6163950;23;20035;-93
2022/05/20 02:50:22;;;;;;;4.63;2.10;;;;;;;;;;6163761;23;20020;-93
2022/05/20 02:52:55;;;;;;;3.30;2.13;;;;;;;;;;6163916;23;20001;-93
2022/05/20 02:55:39;;;;;;;4.78;2.33;;;;;;;;;;6163690;23;20098;-94
2022/05/20 03:04:09;;;;;;;4.28;2.25;;;;;;;;;;6163795;23;20449;-91
2022/05/20 03:06:58;;;;;;;4.40;2.45;;;;;;;;;;6156601;23;20044;-93
2022/05/20 03:09:28;;;;;;;5.28;2.05;;;;;;;;;;6106638;23;20103;-92
2022/05/20 03:11:54;;;;;;;4.38;2.22;;;;;;;;;;6102386;23;20499;-94
2022/05/20 03:14:22;;;;;;;3.50;2.05;;;;;;;;;;6102319;23;20013;-93
2022/05/20 03:16:49;;;;;;;3.65;2.03;;;;;;;;;;6102993;23;20085;-94
2022/05/20 03:19:15;;;;;;;7.75;2.20;;;;;;;;;;6102569;23;20006;-93
2022/05/20 03:21:42;;;;;;;6.22;2.33;;;;;;;;;;6102445;23;20032;-91
2022/05/20 03:24:08;;;;;;;4.97;3.50;;;;;;;;;;6102332;23;20006;-93
2022/05/20 03:26:35;;;;;;;7.93;2.72;;;;;;;;;;6102419;23;20010;-92
2022/05/20 03:29:07;;;;;;;5.95;2.50;;;;;;;;;;6107781;23;20013;-93
2022/05/20 03:31:36;;;;;;;4.63;2.53;;;;;;;;;;6113635;23;20013;-92
2022/05/20 03:34:05;;;;;;;4.22;2.30;;;;;;;;;;6157067;23;20008;-94
2022/05/20 03:36:32;;;;;;;5.60;2.60;;;;;;;;;;6157030;23;20048;-91
2022/05/20 03:38:59;;;;;;;4.57;2.40;;;;;;;;;;6159729;23;20040;-92
2022/05/20 03:41:25;;;;;;;6.50;2.47;;;;;;;;;;6157454;23;20009;-92
2022/05/20 03:44:13;;;;;;;4.88;2.20;;;;;;;;;;6157310;23;20010;-92
2022/05/20 03:47:02;;;;;;;7.55;2.45;;;;;;;;;;6157137;23;20009;-92
2022/05/20 03:49:29;;;;;;;7.05;2.47;;;;;;;;;;6113791;23;20009;-93
2022/05/20 03:51:59;;;;;;;4.57;2.10;;;;;;;;;;6156635;23;20045;-93
2022/05/20 03:54:29;;;;;;;2.88;2.00;;;;;;;;;;6157313;23;20010;-93
2022/05/20 03:56:55;;;;;;;3.35;2.20;;;;;;;;;;6156966;23;20064;-94
2022/05/20 03:59:21;;;;;;;4.53;2.33;;;;;;;;;;6157028;23;20001;-92
2022/05/20 04:01:59;;;;;;;4.70;2.20;;;;;;;;;;6157211;23;20423;-93
2022/05/20 04:04:31;;;;;;;5.10;2.08;;;;;;;;;;6157188;23;20012;-93
2022/05/20 04:06:58;;;;;;;5.35;2.40;;;;;;;;;;6157256;23;20060;-93
2022/05/20 04:09:24;;;;;;;3.22;2.00;;;;;;;;;;6161890;23;20111;-93
2022/05/20 04:12:03;;;;;;;4.85;2.10;;;;;;;;;;6127521;23;20033;-94
2022/05/20 04:15:07;;;;;;;3.00;2.28;;;;;;;;;;6096437;23;20006;-92
2022/05/20 04:17:39;;;;;;;3.95;1.98;;;;;;;;;;6096950;23;20014;-93
2022/05/20 04:28:50;;;;;;;4.83;2.00;;;;;;;;;;6187651;23;20070;-92
2022/05/20 04:31:22;;;;;;;5.28;2.17;;;;;;;;;;6161592;23;20264;-92
2022/05/20 04:33:51;;;;;;;3.05;2.05;;;;;;;;;;6161496;23;20001;-93
2022/05/20 04:36:27;;;;;;;;;;;;;;;;;;;;;
2022/05/20 04:39:02;;;;;;;4.65;2.50;;;;;;;;;;6097102;23;20070;-91
2022/05/20 04:46:59;;;;;;;5.20;2.90;;;;;;;;;;6187495;23;20505;-93
2022/05/20 04:49:27;;;;;;;5.18;2.60;;;;;;;;;;6161766;23;20055;-92
2022/05/20 04:51:54;;;;;;;5.75;2.88;;;;;;;;;;6161424;23;20051;-92
2022/05/20 04:55:02;;;;;;;4.57;2.42;;;;;;;;;;6161219;23;20028;-93
2022/05/20 05:00:45;;;;;;;4.13;1.70;;;;;;;;;;6187286;23;20032;-94
2022/05/20 05:12:38;;;;;;;6.35;1.67;;;;;;;;;;6125939;23;20036;-91
2022/05/20 05:26:35;;;;;;;3.00;1.40;;;;;;;;;;6186961;23;20449;-93
2022/05/20 05:29:02;;;;;;;2.53;1.40;;;;;;;;;;6160925;23;20013;-93
2022/05/20 05:31:29;;;;;;;6.68;1.50;;;;;;;;;;6160515;23;20013;-92
2022/05/20 05:33:55;;;;;;;6.57;1.40;;;;;;;;;;6160792;23;20009;-93
2022/05/20 05:36:21;;;;;;;3.38;1.30;;;;;;;;;;6160943;23;20009;-94
2022/05/20 05:38:50;;;;;;;5.30;1.42;;;;;;;;;;6163656;23;20005;-93
2022/05/20 06:07:14;;;;;;;4.65;2.10;;;;;;;;;;6252837;23;20019;-93
2022/05/20 06:09:43;;;;;;;4.78;2.00;;;;;;;;;;6220583;23;20464;-94
2022/05/20 06:16:15;;;;;;;3.38;1.92;;;;;;;;;;6151764;23;20027;-94
2022/05/20 06:18:42;;;;;;;4.93;2.00;;;;;;;;;;6155976;23;20093;-92
2022/05/20 06:21:14;;;;;;;3.95;1.83;;;;;;;;;;6156044;23;20383;-94
2022/05/20 06:24:06;;;;;;;5.93;2.10;;;;;;;;;;6153977;23;20010;-93
2022/05/20 06:26:32;;;;;;;5.93;2.45;;;;;;;;;;6130203;23;20431;-94
2022/05/20 06:29:07;;;;;;;5.82;2.60;;;;;;;;;;6130319;23;20008;-91
2022/05/20 06:31:41;;;;;;;5.57;2.17;;;;;;;;;;6133625;23;20004;-93
2022/05/20 06:40:21;;;;;;;4.55;2.53;;;;;;;;;;6126598;23;20506;-93
2022/05/20 06:42:53;;;;;;;3.25;1.77;;;;;;;;;;6103128;23;20392;-93
2022/05/20 06:45:25;;;;;;;3.55;2.03;;;;;;;;;;6102883;23;20006;-95
2022/05/20 06:51:00;;;;;;;8.23;2.15;;;;;;;;;;6127286;23;20067;-95
2022/05/20 06:53:26;;;;;;;3.88;2.10;;;;;;;;;;6102866;23;20014;-93
2022/05/20 06:55:59;;;;;;;11.18;2.15;;;;;;;;;;6097604;23;20006;-94
2022/05/20 06:58:26;;;;;;;3.83;2.28;;;;;;;;;;6098188;23;20010;-92
2022/05/20 07:00:52;;;;;;;5.05;2.13;;;;;;;;;;6098599;23;20002;-95
2022/05/20 07:03:20;;;;;;;7.28;2.20;;;;;;;;;;6111418;23;20006;-92
2022/05/20 07:05:49;;;;;;;3.08;1.90;;;;;;;;;;6102444;23;20093;-95
2022/05/20 07:08:16;;;;;;;4.20;2.05;;;;;;;;;;6098410;23;20428;-93
2022/05/20 07:10:42;;;;;;;3.78;1.95;;;;;;;;;;6102334;23;20014;-96
2022/05/20 07:16:38;;;;;;;4.80;1.90;;;;;;;;;;6066852;23;20015;-93
2022/05/20 07:19:13;;;;;;;3.92;2.00;;;;;;;;;;6044464;23;20003;-95
2022/05/20 07:24:51;;;;;;;4.70;2.03;;;;;;;;;;6069020;23;20017;-94
2022/05/20 07:36:14;;;;;;;6.38;1.85;;;;;;;;;;6097517;23;20416;-94
2022/05/20 07:38:51;;;;;;;5.40;1.83;;;;;;;;;;6179507;23;20009;-94
2022/05/20 08:13:21;;;;;;;3.75;1.90;;;;;;;;;;6173087;23;20052;-93
2022/05/20 08:15:55;;;;;;;4.30;1.52;;;;;;;;;;6161701;23;20013;-93
2022/05/20 08:18:27;;;;;;;4.68;1.80;;;;;;;;;;6161949;23;20005;-93
2022/05/20 08:20:56;;;;;;;2.88;1.42;;;;;;;;;;6161538;23;20095;-95
2022/05/20 08:23:29;;;;;;;4.38;1.58;;;;;;;;;;6161594;23;20009;-95
2022/05/20 08:25:55;;;;;;;4.78;1.40;;;;;;;;;;6161526;23;20007;-93
2022/05/20 08:28:34;;;;;;;2.97;1.27;;;;;;;;;;6162139;23;20001;-95
2022/05/20 08:33:57;;;;;;;3.40;1.40;;;;;;;;;;6190050;23;20012;-93
2022/05/20 08:36:29;;;;;;;3.85;1.35;;;;;;;;;;6164911;23;20009;-94
2022/05/20 08:39:01;;;;;;;3.03;1.27;;;;;;;;;;6161357;23;20035;-93
2022/05/20 08:41:27;;;;;;;;;;;;;;;;;;6162040;23;20092;-93
2022/05/20 08:50:29;;;;;;;3.60;1.35;;;;;;;;;;6197924;23;20024;-91
2022/05/20 08:53:20;;;;;;;3.25;1.05;;;;;;;;;;6158771;23;20013;-94
2022/05/20 08:55:56;;;;;;;2.92;1.40;;;;;;;;;;6161597;23;20383;-96
2022/05/20 08:58:26;;;;;;;2.85;1.10;;;;;;;;;;6161122;23;20005;-94
2022/05/20 09:01:01;;;;;;;4.13;1.40;;;;;;;;;;6161062;23;20005;-95
2022/05/20 09:03:57;;;;;;;3.25;1.27;;;;;;;;;;6161686;23;20084;-95
2022/05/20 09:06:46;;;;;;;6.00;1.50;;;;;;;;;;6016633;23;20090;-94
2022/05/20 09:09:39;;;;;;;4.20;1.45;;;;;;;;;;6014329;23;20011;-94
2022/05/20 09:18:31;;;;;;;3.47;1.13;;;;;;;;;;6040057;23;20042;-95
2022/05/20 09:21:16;;;;;;;2.53;1.05;;;;;;;;;;6017006;23;20031;-94
2022/05/20 09:24:04;;;;;;;3.92;1.30;;;;;;;;;;6062642;23;20001;-95
2022/05/20 09:26:48;;;;;;;3.72;1.35;;;;;;;;;;6151260;23;20009;-95
2022/05/20 09:42:07;;;;;;;2.95;1.10;;;;;;;;;;6217069;23;20015;-95
2022/05/20 09:44:44;;;;;;;3.47;1.20;;;;;;;;;;6215957;23;20319;-95
2022/05/20 09:47:18;;;;;;;2.72;1.20;;;;;;;;;;6216136;23;20005;-95
2022/05/20 09:49:53;;;;;;;1.67;0.90;;;;;;;;;;6215839;23;20009;-95
2022/05/20 09:52:19;;;;;;;2.67;1.20;;;;;;;;;;6216074;23;20450;-94
2022/05/20 09:54:48;;;;;;;3.70;1.17;;;;;;;;;;6217730;23;20001;-95
2022/05/20 09:57:24;;;;;;;2.70;1.20;;;;;;;;;;6222350;23;20381;-94
2022/05/20 09:59:56;;;;;;;3.92;1.42;;;;;;;;;;6215937;23;20483;-95
2022/05/20 10:02:27;;;;;;;3.83;1.30;;;;;;;;;;6215958;23;20004;-95
2022/05/20 10:05:05;;;;;;;3.55;1.10;;;;;;;;;;6216023;23;20008;-95
2022/05/20 10:07:50;;;;;;;2.75;1.20;;;;;;;;;;6215722;23;20005;-94
2022/05/20 10:10:39;;;;;;;3.10;1.10;;;;;;;;;;6215327;23;20005;-95
2022/05/20 10:49:31;;;;;;;3.88;1.20;;;;;;;;;;6188841;23;20040;-94
2022/05/20 10:55:19;;;;;;;2.58;1.15;;;;;;;;;;6188810;23;20115;-94
2022/05/20 10:58:04;;;;;;;2.45;1.23;;;;;;;;;;6165373;23;20009;-94
2022/05/20 11:00:35;;;;;;;4.30;1.30;;;;;;;;;;6162267;23;20096;-93
2022/05/20 11:03:05;;;;;;;4.10;1.20;;;;;;;;;;6162574;23;20001;-94
2022/05/20 11:05:37;;;;;;;3.05;1.50;;;;;;;;;;6162152;23;20494;-94
2022/05/20 11:08:09;;;;;;;2.88;1.15;;;;;;;;;;6162198;23;20033;-95
2022/05/20 11:10:54;;;;;;;5.95;1.40;;;;;;;;;;6161014;23;20105;-94
2022/05/20 11:13:45;;;;;;;4.10;1.60;;;;;;;;;;6162057;23;20044;-93
2022/05/20 11:19:13;;;;;;;3.78;1.42;;;;;;;;;;6185433;23;20027;-94
2022/05/20 11:21:54;;;;;;;3.60;1.30;;;;;;;;;;6167835;23;20001;-93
2022/05/20 11:24:39;;;;;;;6.97;1.83;;;;;;;;;;6162374;23;20005;-94
2022/05/20 11:27:27;;;;;;;6.43;1.52;;;;;;;;;;6161704;23;20005;-95
2022/05/20 11:30:06;;;;;;;4.20;1.65;;;;;;;;;;6162113;23;20005;-94
2022/05/20 11:33:00;;;;;;;3.75;1.58;;;;;;;;;;6161608;23;20013;-93
2022/05/20 11:42:07;;;;;;;7.22;1.65;;;;;;;;;;6188135;23;20012;-95
2022/05/20 11:44:55;;;;;;;7.63;2.63;;;;;;;;;;6035514;23;20122;-93
2022/05/20 11:53:30;;;;;;;;;;;;;;;;;;6069243;23;20047;-94
2022/05/20 11:56:09;;;;;;;4.68;1.88;;;;;;;;;;6068021;23;20311;-92
2022/05/20 11:58:48;;;;;;;4.20;1.75;;;;;;;;;;6044561;23;20030;-92
2022/05/20 12:01:18;;;;;;;3.88;1.90;;;;;;;;;;6086521;23;20508;-93
2022/05/20 12:06:34;;;;;;;7.32;2.22;;;;;;;;;;6195999;23;20070;-93
2022/05/20 12:09:07;;;;;;;3.42;1.80;;;;;;;;;;6161970;23;20009;-94
2022/05/20 12:11:45;;;;;;;4.95;1.80;;;;;;;;;;6162019;23;20068;-94
2022/05/20 12:14:16;;;;;;;4.43;2.20;;;;;;;;;;6161411;23;20001;-93
2022/05/20 12:17:02;;;;;;;7.18;2.10;;;;;;;;;;6163674;23;20096;-93
2022/05/20 12:25:24;;;;;;;5.70;1.73;;;;;;;;;;6187572;23;20493;-94
2022/05/20 12:28:09;;;;;;;7.47;2.13;;;;;;;;;;6160985;23;20005;-92
2022/05/20 12:30:43;;;;;;;4.00;1.90;;;;;;;;;;6161002;23;20005;-92
2022/05/20 12:33:26;;;;;;;4.30;1.73;;;;;;;;;;6161280;23;20009;-94
2022/05/20 12:36:14;;;;;;;4.95;1.92;;;;;;;;;;6161108;23;20096;-93
2022/05/20 12:38:40;;;;;;;5.10;1.98;;;;;;;;;;6160762;23;20028;-95
2022/05/20 12:41:24;;;;;;;4.88;1.80;;;;;;;;;;6162735;23;20039;-93
2022/05/20 12:44:02;;;;;;;6.38;2.03;;;;;;;;;;6160988;23;20478;-92
2022/05/20 12:46:54;;;;;;;3.25;2.03;;;;;;;;;;6161204;23;20020;-92
2022/05/20 12:52:25;;;;;;;3.17;1.70;;;;;;;;;;6187055;23;20045;-94
2022/05/20 12:54:59;;;;;;;14.98;2.45;;;;;;;;;;6161204;23;20012;-94
2022/05/20 12:57:33;;;;;;;4.50;2.38;;;;;;;;;;6161327;23;20013;-93
2022/05/20 13:00:07;;;;;;;5.35;2.13;;;;;;;;;;6160943;23;20378;-93
2022/05/20 13:02:53;;;;;;;4.30;2.00;;;;;;;;;;6161451;23;20005;-95
2022/05/20 13:05:34;;;;;;;5.05;2.10;;;;;;;;;;6185174;23;20005;-92
2022/05/20 13:08:01;;;;;;;5.03;2.00;;;;;;;;;;6162090;23;20005;-93
2022/05/20 13:10:35;;;;;;;5.50;2.15;;;;;;;;;;6161133;23;20054;-93
2022/05/20 13:13:02;;;;;;;4.20;2.00;;;;;;;;;;6161349;23;20009;-94
2022/05/20 13:16:04;;;;;;;2.78;2.08;;;;;;;;;;6160855;23;20033;-93
2022/05/20 13:18:43;;;;;;;4.32;2.10;;;;;;;;;;6015388;23;20019;-93
2022/05/20 13:21:25;;;;;;;4.18;2.25;;;;;;;;;;6015760;23;20495;-93
2022/05/20 13:23:55;;;;;;;5.88;2.30;;;;;;;;;;6015197;23;20007;-94
2022/05/20 13:26:35;;;;;;;5.53;2.30;;;;;;;;;;6015058;23;20337;-94
2022/05/20 13:29:25;;;;;;;3.90;2.10;;;;;;;;;;6015163;23;20090;-92
2022/05/20 13:32:13;;;;;;;3.78;2.28;;;;;;;;;;6009966;23;20015;-93
2022/05/20 13:35:14;;;;;;;7.07;2.45;;;;;;;;;;6101536;23;20114;-92
2022/05/20 13:37:59;;;;;;;5.63;2.53;;;;;;;;;;6101285;23;20010;-94
2022/05/20 13:40:39;;;;;;;5.18;2.30;;;;;;;;;;6106957;23;20010;-94
2022/05/20 13:43:20;;;;;;;3.08;2.47;;;;;;;;;;6099353;23;20002;-94
2022/05/20 13:51:27;;;;;;;7.25;2.55;;;;;;;;;;6133148;23;20045;-93
2022/05/20 13:53:54;;;;;;;4.43;2.63;;;;;;;;;;6105743;23;20016;-93
2022/05/20 13:56:25;;;;;;;4.78;2.20;;;;;;;;;;6101171;23;20395;-94
2022/05/20 13:58:52;;;;;;;3.63;2.53;;;;;;;;;;6101222;23;20084;-94
2022/05/20 14:01:23;;;;;;;5.13;2.70;;;;;;;;;;6100545;23;20029;-94
2022/05/20 14:03:58;;;;;;;9.13;2.40;;;;;;;;;;6154645;23;20087;-94
2022/05/20 14:06:36;;;;;;;6.30;2.60;;;;;;;;;;6160461;23;20016;-94
2022/05/20 14:14:57;;;;;;;4.88;2.40;;;;;;;;;;6190301;23;19907;-94
2022/05/20 14:17:28;;;;;;;4.55;2.10;;;;;;;;;;6156433;23;20025;-93
2022/05/20 14:20:00;;;;;;;4.50;2.50;;;;;;;;;;6125280;23;20042;-94
2022/05/20 14:22:33;;;;;;;6.13;2.72;;;;;;;;;;6125428;23;20042;-95
2022/05/20 14:25:29;;;;;;;6.63;2.53;;;;;;;;;;6125467;23;20060;-94
2022/05/20 14:28:16;;;;;;;5.90;2.60;;;;;;;;;;6124810;23;20081;-95
2022/05/20 14:33:47;;;;;;;9.32;2.63;;;;;;;;;;6125543;23;20020;-91
2022/05/20 14:36:14;;;;;;;4.05;2.53;;;;;;;;;;6125358;23;20506;-94
2022/05/20 14:38:52;;;;;;;4.03;2.60;;;;;;;;;;6125598;23;20085;-94
2022/05/20 14:41:26;;;;;;;5.93;2.60;;;;;;;;;;6125712;23;20010;-93
2022/05/20 14:44:19;;;;;;;4.78;2.50;;;;;;;;;;6125760;23;20058;-95
2022/05/20 14:47:16;;;;;;;3.93;2.50;;;;;;;;;;6068273;23;20089;-95
2022/05/20 14:49:52;;;;;;;5.75;2.35;;;;;;;;;;6125189;23;20044;-94
2022/05/20 14:52:37;;;;;;;4.45;2.50;;;;;;;;;;6155919;23;20020;-92
2022/05/20 14:55:03;;;;;;;3.55;2.45;;;;;;;;;;6157790;23;20037;-94
2022/05/20 14:57:32;;;;;;;4.38;2.38;;;;;;;;;;6156588;23;19997;-93
2022/05/20 15:00:17;;;;;;;3.22;2.17;;;;;;;;;;6160223;23;20001;-94
2022/05/20 15:02:43;;;;;;;5.80;2.33;;;;;;;;;;6162384;23;20005;-94
2022/05/20 15:05:10;;;;;;;4.53;2.20;;;;;;;;;;6163094;23;20012;-94
2022/05/20 15:07:47;;;;;;;4.82;2.40;;;;;;;;;;6162308;23;20009;-93
2022/05/20 15:10:22;;;;;;;4.97;2.40;;;;;;;;;;6162191;23;20012;-93
2022/05/20 15:12:54;;;;;;;5.35;2.10;;;;;;;;;;6161514;23;20017;-93
2022/05/20 15:15:27;;;;;;;7.85;2.55;;;;;;;;;;6162017;23;20005;-92
2022/05/20 15:24:04;;;;;;;6.70;2.38;;;;;;;;;;6188996;23;19907;-93
2022/05/20 15:26:35;;;;;;;5.82;2.17;;;;;;;;;;6096055;23;20036;-91
2022/05/20 15:29:05;;;;;;;6.43;2.20;;;;;;;;;;6161655;23;20025;-96
2022/05/20 15:37:25;;;;;;;3.40;2.22;;;;;;;;;;6193425;23;20028;-93
2022/05/20 15:40:08;;;;;;;5.00;2.50;;;;;;;;;;6166568;23;20044;-93
2022/05/20 15:42:46;;;;;;;4.95;2.38;;;;;;;;;;6162036;23;20009;-94
2022/05/20 15:45:17;;;;;;;8.25;2.05;;;;;;;;;;6161724;23;20001;-93
2022/05/20 15:47:49;;;;;;;5.47;2.38;;;;;;;;;;6161573;23;20009;-92
2022/05/20 15:50:19;;;;;;;4.30;2.30;;;;;;;;;;6162019;23;20007;-94
2022/05/20 15:52:49;;;;;;;4.22;2.25;;;;;;;;;;6161819;23;20063;-93
2022/05/20 15:55:38;;;;;;;3.92;2.03;;;;;;;;;;6162394;23;20004;-92
2022/05/20 15:58:22;;;;;;;3.38;2.10;;;;;;;;;;6162709;23;20005;-94
2022/05/20 16:00:52;;;;;;;5.15;2.13;;;;;;;;;;6161246;23;20005;-93
2022/05/20 16:03:22;;;;;;;3.45;1.83;;;;;;;;;;6161839;23;20001;-93
2022/05/20 16:05:54;;;;;;;4.70;2.28;;;;;;;;;;6161602;23;20087;-92
2022/05/20 16:08:26;;;;;;;5.68;2.10;;;;;;;;;;6161475;23;20023;-95
2022/05/20 16:10:58;;;;;;;5.57;1.90;;;;;;;;;;6161183;23;20001;-94
2022/05/20 16:13:33;;;;;;;8.77;2.15;;;;;;;;;;6161693;23;20037;-90
2022/05/20 16:16:06;;;;;;;4.40;1.98;;;;;;;;;;6149487;23;20399;-95
2022/05/20 16:18:38;;;;;;;4.72;2.35;;;;;;;;;;6137551;23;20076;-95
2022/05/20 16:21:12;;;;;;;7.10;2.38;;;;;;;;;;6131649;23;20100;-93
2022/05/20 16:23:47;;;;;;;5.53;1.90;;;;;;;;;;6131665;23;20056;-91
2022/05/20 16:26:17;;;;;;;4.50;2.03;;;;;;;;;;6133770;23;20001;-91
2022/05/20 16:29:02;;;;;;;6.00;1.98;;;;;;;;;;6133691;23;20036;-94
2022/05/20 16:31:29;;;;;;;4.70;2.00;;;;;;;;;;6131763;23;20079;-95
2022/05/20 16:33:58;;;;;;;7.28;2.20;;;;;;;;;;6131504;23;20068;-95
2022/05/20 16:36:36;;;;;;;6.60;2.22;;;;;;;;;;6132179;23;20005;-95
2022/05/20 16:39:24;;;;;;;5.22;2.17;;;;;;;;;;6131376;23;20006;-94
2022/05/20 16:41:56;;;;;;;5.07;1.88;;;;;;;;;;6131879;23;20044;-95
2022/05/20 17:02:44;;;;;;;2.95;1.70;;;;;;;;;;6068752;23;20013;-94
2022/05/20 17:13:49;;;;;;;3.75;1.77;;;;;;;;;;6184432;23;19923;-94
2022/05/20 17:19:22;;;;;;;3.28;1.80;;;;;;;;;;6187670;23;20032;-93
2022/05/20 17:24:51;;;;;;;4.45;2.25;;;;;;;;;;6197930;23;20098;-92
2022/05/20 17:27:28;;;;;;;5.15;2.50;;;;;;;;;;6164363;23;20001;-93
2022/05/20 17:36:22;;;;;;;4.95;2.20;;;;;;;;;;6187050;23;20067;-94
2022/05/20 17:39:01;;;;;;;4.55;1.90;;;;;;;;;;6160689;23;20072;-93
2022/05/20 17:41:54;;;;;;;3.25;1.80;;;;;;;;;;6160341;23;20005;-94
2022/05/20 17:44:23;;;;;;;4.47;2.03;;;;;;;;;;6186249;23;20005;-94
2022/05/20 17:47:00;;;;;;;6.43;2.20;;;;;;;;;;6160838;23;20083;-93
2022/05/20 17:49:39;;;;;;;7.75;2.20;;;;;;;;;;6160929;23;20080;-93
2022/05/20 18:04:11;;;;;;;5.70;1.65;;;;;;;;;;6186782;23;20012;-94
2022/05/20 18:06:53;;;;;;;3.65;2.10;;;;;;;;;;6160402;23;20088;-95
2022/05/20 18:09:28;;;;;;;3.03;1.93;;;;;;;;;;6154770;23;20037;-94
2022/05/20 18:12:12;;;;;;;5.88;1.70;;;;;;;;;;6153646;23;20027;-93
2022/05/20 18:14:43;;;;;;;6.45;1.70;;;;;;;;;;6155094;23;20001;-93
2022/05/20 18:20:00;;;;;;;6.55;2.45;;;;;;;;;;6097209;23;20006;-95
2022/05/20 18:22:26;;;;;;;3.53;2.00;;;;;;;;;;6122734;23;20017;-95
2022/05/20 18:25:04;;;;;;;5.10;2.10;;;;;;;;;;6155560;23;20125;-94
2022/05/20 18:27:30;;;;;;;4.03;2.30;;;;;;;;;;6158697;23;20052;-94
2022/05/20 18:30:02;;;;;;;4.05;2.00;;;;;;;;;;6155357;23;20049;-94
2022/05/20 18:32:33;;;;;;;5.65;2.60;;;;;;;;;;6154769;23;20491;-93
2022/05/20 18:40:47;;;;;;;5.78;2.70;;;;;;;;;;6171393;23;20015;-94
2022/05/20 18:43:19;;;;;;;10.32;2.80;;;;;;;;;;6162672;23;20470;-94
2022/05/20 18:45:48;;;;;;;5.82;2.17;;;;;;;;;;6154984;23;20005;-92
2022/05/20 18:48:18;;;;;;;8.77;2.70;;;;;;;;;;6161546;23;20008;-94
2022/05/20 18:50:47;;;;;;;4.75;2.70;;;;;;;;;;6162859;23;20440;-94
2022/05/20 18:53:13;;;;;;;5.90;2.80;;;;;;;;;;6162011;23;20036;-94
2022/05/20 18:55:54;;;;;;;6.53;2.83;;;;;;;;;;6162091;23;20025;-92
2022/05/20 18:58:24;;;;;;;5.38;2.72;;;;;;;;;;6162730;23;20093;-94
2022/05/20 19:00:54;;;;;;;5.10;2.97;;;;;;;;;;6162620;23;20040;-94
2022/05/20 19:03:47;;;;;;;6.03;2.95;;;;;;;;;;6146103;23;20423;-92
2022/05/20 19:06:24;;;;;;;4.10;2.90;;;;;;;;;;6187076;23;20016;-94
2022/05/20 19:09:11;;;;;;;3.28;2.50;;;;;;;;;;6097339;23;20061;-94
2022/05/20 19:11:48;;;;;;;3.92;2.95;;;;;;;;;;6105596;23;20018;-91
2022/05/20 19:14:14;;;;;;;6.50;3.20;;;;;;;;;;6104072;23;20061;-94
2022/05/20 19:16:44;;;;;;;6.78;3.28;;;;;;;;;;6101796;23;20096;-94
2022/05/20 19:19:10;;;;;;;5.15;3.38;;;;;;;;;;6102100;23;20002;-94
2022/05/20 19:21:39;;;;;;;6.88;3.40;;;;;;;;;;6104725;23;20006;-94
2022/05/20 19:24:12;;;;;;;7.38;3.63;;;;;;;;;;6102443;23;20009;-94
2022/05/20 19:27:10;;;;;;;6.63;3.60;;;;;;;;;;6102459;23;20431;-94
2022/05/20 19:29:40;;;;;;;5.57;3.10;;;;;;;;;;5982592;23;20015;-93
2022/05/20 19:32:14;;;;;;;4.35;3.55;;;;;;;;;;5983315;24;20446;-94
2022/05/20 19:34:40;;;;;;;6.55;3.15;;;;;;;;;;6086148;23;20006;-93
2022/05/20 19:37:11;;;;;;;8.10;3.28;;;;;;;;;;6073419;23;20038;-94
2022/05/20 19:39:58;;;;;;;4.60;3.08;;;;;;;;;;6097666;23;20455;-92
2022/05/20 19:42:25;;;;;;;6.43;3.10;;;;;;;;;;6112922;23;20002;-93
2022/05/20 19:45:14;;;;;;;5.80;3.15;;;;;;;;;;6131375;23;20443;-92
2022/05/20 19:47:43;;;;;;;4.63;3.13;;;;;;;;;;6137669;23;20029;-94
2022/05/20 19:50:13;;;;;;;4.68;3.30;;;;;;;;;;6131112;23;20124;-93
2022/05/20 19:52:39;;;;;;;5.72;3.13;;;;;;;;;;6130702;23;20018;-93
2022/05/20 19:55:15;;;;;;;5.43;3.15;;;;;;;;;;6131340;23;20001;-91
2022/05/20 20:00:44;;;;;;;7.40;3.20;;;;;;;;;;6170607;23;20012;-94
2022/05/20 20:03:10;;;;;;;;;;;;;;;;;;6161426;23;20312;-94
2022/05/20 20:05:42;;;;;;;4.97;3.10;;;;;;;;;;6161740;23;20301;-95
2022/05/20 20:08:15;;;;;;;4.60;3.25;;;;;;;;;;6125434;23;20006;-94
2022/05/20 20:10:45;;;;;;;4.47;3.67;;;;;;;;;;6101746;23;20388;-92
2022/05/20 20:16:17;;;;;;;5.53;3.00;;;;;;;;;;6126828;23;20041;-93
2022/05/20 20:18:50;;;;;;;7.07;3.78;;;;;;;;;;6127026;23;20133;-94
2022/05/20 20:35:46;;;;;;;7.97;5.07;;;;;;;;;;6126717;23;20052;-94
2022/05/20 20:38:25;;;;;;;6.47;4.80;;;;;;;;;;6133346;23;20101;-94
2022/05/20 20:41:16;;;;;;;6.82;4.60;;;;;;;;;;6162535;23;20001;-93
2022/05/20 20:43:48;;;;;;;7.28;5.10;;;;;;;;;;6161440;23;20012;-91
2022/05/20 20:52:31;;;;;;;7.38;4.65;;;;;;;;;;6068165;23;20029;-93
2022/05/20 20:55:01;;;;;;;6.57;4.60;;;;;;;;;;6143298;23;20005;-94
2022/05/20 20:57:33;;;;;;;6.55;4.43;;;;;;;;;;6167969;23;20028;-92
2022/05/20 21:00:02;;;;;;;6.97;4.57;;;;;;;;;;6165223;23;20423;-94
2022/05/20 21:02:36;;;;;;;7.40;4.50;;;;;;;;;;6161095;23;20005;-94
2022/05/20 21:05:08;;;;;;;6.05;4.30;;;;;;;;;;6161476;23;20001;-94
2022/05/20 21:07:34;;;;;;;7.30;4.67;;;;;;;;;;6160686;23;20005;-93
2022/05/20 21:10:07;;;;;;;6.15;4.50;;;;;;;;;;6128284;23;20583;-93
2022/05/20 21:12:33;;;;;;;6.20;4.05;;;;;;;;;;6161413;23;20083;-94
2022/05/20 21:15:07;;;;;;;7.15;4.40;;;;;;;;;;6169679;23;20069;-94
2022/05/20 21:17:55;;;;;;;5.75;4.35;;;;;;;;;;6163130;23;20021;-92
2022/05/20 21:20:31;;;;;;;5.40;4.65;;;;;;;;;;6160639;23;20051;-92
2022/05/20 21:23:01;;;;;;;8.05;5.07;;;;;;;;;;6159433;23;20016;-94
2022/05/20 21:25:33;;;;;;;7.38;4.68;;;;;;;;;;6160801;23;20001;-93